Time;durP1;ratioP1;P1;durP2;ratioP2;P2;SDS_P1;SDS_P2;PMS_P1;PMS_P2;Temp;Humidity;BMP_temperature;BMP_pressure;BME280_temperature;BME280_humidity;BME280_pressure;Samples;Min_cycle;Max_cycle;Signal;HPM_P1;HPM_P2
2021/10/13 00:01:52;;;;;;;4.80;3.67;;;8.90;99.90;;;;;;5034684;28;20304;-75
2021/10/13 00:04:20;;;;;;;5.23;3.30;;;8.90;99.90;;;;;;5034640;28;20632;-75
2021/10/13 00:06:47;;;;;;;3.70;2.67;;;8.90;99.90;;;;;;5052711;28;20216;-75
2021/10/13 00:09:12;;;;;;;4.80;2.30;;;8.90;99.90;;;;;;5018175;28;20173;-75
2021/10/13 00:11:39;;;;;;;3.63;2.17;;;8.90;99.90;;;;;;5052250;28;20651;-75
2021/10/13 00:14:04;;;;;;;6.53;2.40;;;8.90;99.90;;;;;;5052326;28;20590;-75
2021/10/13 00:16:31;;;;;;;5.00;2.33;;;8.90;99.90;;;;;;5054841;28;20199;-75
2021/10/13 00:18:57;;;;;;;4.45;1.88;;;8.80;99.90;;;;;;5034522;28;20177;-75
2021/10/13 00:21:23;;;;;;;3.17;2.03;;;8.80;99.90;;;;;;5034207;28;20176;-75
2021/10/13 00:23:49;;;;;;;6.85;1.80;;;8.80;99.90;;;;;;5052264;28;20204;-75
2021/10/13 00:26:15;;;;;;;4.57;1.80;;;8.80;99.90;;;;;;5052606;28;20247;-78
2021/10/13 00:28:41;;;;;;;5.00;1.80;;;8.80;99.90;;;;;;5052426;28;20568;-79
2021/10/13 00:31:07;;;;;;;3.87;1.90;;;8.70;99.90;;;;;;5033891;28;20835;-78
2021/10/13 00:33:33;;;;;;;6.03;1.73;;;8.70;99.90;;;;;;5052288;28;20169;-78
2021/10/13 00:35:59;;;;;;;6.87;1.93;;;8.70;99.90;;;;;;5033968;28;20886;-78
2021/10/13 00:38:24;;;;;;;4.80;1.90;;;8.70;99.90;;;;;;5052135;28;20919;-79
2021/10/13 00:40:50;;;;;;;4.97;1.93;;;8.70;99.90;;;;;;5051363;28;20651;-78
2021/10/13 00:43:16;;;;;;;3.53;1.60;;;8.70;99.90;;;;;;5051991;28;20926;-79
2021/10/13 00:45:42;;;;;;;4.93;1.80;;;8.70;99.90;;;;;;5051567;28;20189;-79
2021/10/13 00:48:07;;;;;;;4.93;2.03;;;8.70;99.90;;;;;;5034210;28;20666;-79
2021/10/13 00:50:33;;;;;;;5.43;2.10;;;8.70;99.90;;;;;;5033961;28;20169;-79
2021/10/13 00:52:59;;;;;;;4.83;1.70;;;8.70;99.90;;;;;;5051989;28;20227;-79
2021/10/13 00:55:25;;;;;;;4.97;1.47;;;8.70;99.90;;;;;;5051700;28;20224;-79
2021/10/13 00:57:51;;;;;;;6.43;1.83;;;8.70;99.90;;;;;;5047279;28;20950;-79
2021/10/13 01:00:19;;;;;;;10.85;1.88;;;8.60;99.90;;;;;;5051636;28;20582;-79
2021/10/13 01:03:10;;;;;;;5.18;2.10;;;8.60;99.90;;;;;;5017047;28;20640;-78
2021/10/13 01:05:55;;;;;;;3.90;1.40;;;8.60;99.90;;;;;;5051797;28;20197;-79
2021/10/13 01:08:41;;;;;;;5.45;1.92;;;8.60;99.90;;;;;;5051431;28;20580;-78
2021/10/13 01:11:29;;;;;;;3.70;2.38;;;8.60;99.90;;;;;;5051399;28;20200;-78
2021/10/13 01:14:27;;;;;;;6.95;1.92;;;8.60;99.90;;;;;;5033679;28;20173;-78
2021/10/13 01:16:59;;;;;;;4.55;1.77;;;8.50;99.90;;;;;;5051329;28;20558;-78
2021/10/13 01:20:02;;;;;;;5.78;1.65;;;8.50;99.90;;;;;;5050421;28;20162;-78
2021/10/13 01:22:42;;;;;;;6.30;2.00;;;8.50;99.90;;;;;;5028816;28;20283;-78
2021/10/13 01:25:20;;;;;;;4.78;2.13;;;8.40;99.90;;;;;;5051254;28;20542;-78
2021/10/13 01:28:00;;;;;;;5.25;1.60;;;8.40;99.90;;;;;;5066642;28;20185;-78
2021/10/13 01:30:32;;;;;;;4.90;1.90;;;8.40;99.90;;;;;;5053122;28;20514;-78
2021/10/13 01:33:11;;;;;;;3.05;2.15;;;8.40;99.90;;;;;;5050732;28;20171;-79
2021/10/13 01:35:45;;;;;;;2.63;1.60;;;8.40;99.90;;;;;;5033243;28;20673;-79
2021/10/13 01:38:16;;;;;;;4.15;1.90;;;8.40;99.90;;;;;;5051217;28;20176;-79
2021/10/13 01:40:43;;;;;;;11.13;2.45;;;8.40;99.90;;;;;;5051600;28;20173;-80
2021/10/13 01:43:11;;;;;;;3.28;1.55;;;8.40;99.90;;;;;;5050807;28;20169;-78
2021/10/13 01:45:39;;;;;;;4.45;1.90;;;8.40;99.90;;;;;;5051301;28;20268;-78
2021/10/13 01:48:06;;;;;;;6.07;2.30;;;8.40;99.90;;;;;;5033521;28;20242;-79
2021/10/13 01:50:33;;;;;;;3.35;2.00;;;8.40;99.90;;;;;;5051081;28;20169;-80
2021/10/13 01:53:00;;;;;;;5.18;2.13;;;8.40;99.90;;;;;;5066479;28;20168;-79
2021/10/13 01:55:27;;;;;;;5.70;2.33;;;8.40;99.90;;;;;;5067123;28;20188;-79
2021/10/13 01:57:57;;;;;;;5.10;2.42;;;8.40;99.90;;;;;;5051946;28;20199;-78
2021/10/13 02:00:24;;;;;;;3.13;1.60;;;8.40;99.90;;;;;;5033762;28;20172;-79
2021/10/13 02:02:52;;;;;;;5.05;2.10;;;8.40;99.90;;;;;;5066686;28;20177;-78
2021/10/13 02:05:19;;;;;;;5.18;2.05;;;8.40;99.90;;;;;;5053771;28;20236;-78
2021/10/13 02:07:47;;;;;;;6.70;2.90;;;8.30;99.90;;;;;;5057837;28;20176;-79
2021/10/13 02:10:16;;;;;;;4.55;2.22;;;8.30;99.90;;;;;;5054586;28;20180;-78
2021/10/13 02:12:44;;;;;;;4.32;1.60;;;8.30;99.90;;;;;;5036538;28;20254;-79
2021/10/13 02:15:12;;;;;;;3.35;1.70;;;8.30;99.90;;;;;;5054519;28;20196;-79
2021/10/13 02:17:43;;;;;;;3.65;2.50;;;8.30;99.90;;;;;;5054995;28;20661;-80
2021/10/13 02:20:09;;;;;;;3.75;2.60;;;8.30;99.90;;;;;;5070009;28;20180;-79
2021/10/13 02:22:39;;;;;;;3.95;1.95;;;8.30;99.90;;;;;;5054639;28;20173;-78
2021/10/13 02:25:05;;;;;;;2.92;2.42;;;8.30;99.90;;;;;;5054517;28;20239;-78
2021/10/13 02:27:54;;;;;;;5.65;2.13;;;8.30;99.90;;;;;;5054456;28;20766;-78
2021/10/13 02:30:19;;;;;;;5.45;2.20;;;8.30;99.90;;;;;;5054513;28;20204;-78
2021/10/13 02:32:45;;;;;;;6.20;2.53;;;8.30;99.90;;;;;;5054081;28;20786;-78
2021/10/13 02:35:11;;;;;;;3.10;2.20;;;8.30;99.90;;;;;;5069962;28;20184;-79
2021/10/13 02:37:37;;;;;;;4.90;2.63;;;8.30;99.90;;;;;;5054228;28;20165;-78
2021/10/13 02:40:05;;;;;;;2.73;2.37;;;8.30;99.90;;;;;;5069958;28;20567;-78
2021/10/13 02:42:33;;;;;;;5.03;2.75;;;8.20;99.90;;;;;;5053773;28;20567;-79
2021/10/13 02:44:59;;;;;;;4.63;2.40;;;8.20;99.90;;;;;;5071106;28;20196;-79
2021/10/13 02:47:52;;;;;;;5.00;2.50;;;8.20;99.90;;;;;;5054061;28;20710;-78
2021/10/13 02:50:36;;;;;;;4.38;2.45;;;8.20;99.90;;;;;;5052936;28;20177;-78
2021/10/13 02:53:10;;;;;;;4.72;1.88;;;8.10;99.90;;;;;;5053566;28;20173;-78
2021/10/13 02:55:49;;;;;;;3.10;2.10;;;8.10;99.90;;;;;;5036328;28;20181;-78
2021/10/13 02:58:22;;;;;;;7.95;2.20;;;8.10;99.90;;;;;;5053748;28;20179;-78
2021/10/13 03:00:50;;;;;;;4.43;2.55;;;8.10;99.90;;;;;;5035993;28;20227;-78
2021/10/13 03:03:18;;;;;;;4.18;2.25;;;8.10;99.90;;;;;;5053622;28;20230;-79
2021/10/13 03:05:47;;;;;;;8.20;2.63;;;8.10;99.90;;;;;;5053908;28;20184;-79
2021/10/13 03:08:16;;;;;;;5.07;2.92;;;8.10;99.90;;;;;;5053790;28;20211;-79
2021/10/13 03:10:46;;;;;;;4.13;2.95;;;8.20;99.90;;;;;;5053727;28;20200;-80
2021/10/13 03:13:14;;;;;;;4.30;3.55;;;8.20;99.90;;;;;;5053642;28;20223;-79
2021/10/13 03:15:44;;;;;;;9.68;4.60;;;8.20;99.90;;;;;;5053096;28;20185;-79
2021/10/13 03:18:12;;;;;;;4.40;3.40;;;8.30;99.90;;;;;;5054057;28;20215;-79
2021/10/13 03:20:39;;;;;;;5.00;3.70;;;8.30;99.90;;;;;;5053583;28;20207;-79
2021/10/13 03:23:06;;;;;;;6.15;3.72;;;8.40;99.90;;;;;;5056597;28;20208;-78
2021/10/13 03:25:33;;;;;;;5.95;3.15;;;8.50;99.90;;;;;;5053057;28;20197;-78
2021/10/13 03:28:00;;;;;;;7.30;3.53;;;8.50;99.90;;;;;;5053657;28;20200;-78
2021/10/13 03:30:27;;;;;;;5.65;3.50;;;8.50;99.90;;;;;;5053337;28;20306;-78
2021/10/13 03:32:53;;;;;;;4.60;3.63;;;8.60;99.90;;;;;;5053327;28;20754;-79
2021/10/13 03:35:31;;;;;;;5.37;3.53;;;8.60;99.90;;;;;;5035300;28;20197;-78
2021/10/13 03:37:59;;;;;;;8.82;3.75;;;8.60;99.90;;;;;;5053605;28;20581;-79
2021/10/13 03:40:26;;;;;;;7.57;4.38;;;8.60;99.90;;;;;;5057028;28;20177;-79
2021/10/13 03:42:52;;;;;;;5.47;2.75;;;8.50;99.90;;;;;;5053256;28;20530;-79
2021/10/13 03:45:19;;;;;;;4.60;3.27;;;8.60;99.90;;;;;;5052929;28;20276;-79
2021/10/13 03:47:47;;;;;;;6.47;3.40;;;8.50;99.90;;;;;;5053109;28;20633;-79
2021/10/13 03:50:14;;;;;;;8.15;4.15;;;8.50;99.90;;;;;;5053193;28;20203;-79
2021/10/13 03:52:41;;;;;;;3.80;3.28;;;8.50;99.90;;;;;;5052627;28;20193;-79
2021/10/13 03:55:09;;;;;;;6.35;4.22;;;8.50;99.90;;;;;;5053046;28;20272;-78
2021/10/13 03:57:35;;;;;;;8.63;4.45;;;8.40;99.90;;;;;;5052773;28;20169;-79
2021/10/13 04:00:06;;;;;;;6.73;4.60;;;8.40;99.90;;;;;;5054826;28;20223;-79
2021/10/13 04:02:33;;;;;;;5.55;3.67;;;8.40;99.90;;;;;;5052478;28;20567;-79
2021/10/13 04:04:59;;;;;;;6.40;4.07;;;8.40;99.90;;;;;;5052851;28;20193;-79
2021/10/13 04:07:25;;;;;;;4.93;4.03;;;8.30;99.90;;;;;;5052932;28;20175;-79
2021/10/13 04:09:51;;;;;;;6.97;4.60;;;8.30;99.90;;;;;;5052981;28;20568;-79
2021/10/13 04:12:16;;;;;;;6.20;4.40;;;8.30;99.90;;;;;;5052201;28;20292;-79
2021/10/13 04:14:42;;;;;;;5.20;4.30;;;8.30;99.90;;;;;;5051362;28;20180;-79
2021/10/13 04:17:08;;;;;;;6.63;4.50;;;8.30;99.90;;;;;;5052525;28;20184;-79
2021/10/13 04:19:34;;;;;;;5.83;3.97;;;8.30;99.90;;;;;;5052559;28;21143;-79
2021/10/13 04:21:59;;;;;;;7.33;5.60;;;8.30;99.90;;;;;;5052120;28;20579;-79
2021/10/13 04:24:25;;;;;;;6.80;4.50;;;8.40;99.90;;;;;;5052567;28;20571;-79
2021/10/13 04:26:51;;;;;;;4.70;4.30;;;8.40;99.90;;;;;;5052968;28;20208;-79
2021/10/13 04:29:17;;;;;;;14.63;5.97;;;8.40;99.90;;;;;;5052435;28;20595;-79
2021/10/13 04:31:42;;;;;;;8.60;4.73;;;8.50;99.90;;;;;;5052325;28;20208;-79
2021/10/13 04:34:08;;;;;;;8.70;4.27;;;8.50;99.90;;;;;;5052402;28;20526;-79
2021/10/13 04:36:34;;;;;;;9.20;4.63;;;8.60;99.90;;;;;;5036089;28;20189;-79
2021/10/13 04:38:59;;;;;;;7.17;4.70;;;8.60;99.90;;;;;;5052159;28;20264;-80
2021/10/13 04:41:25;;;;;;;7.53;4.50;;;8.70;99.90;;;;;;5052106;28;20535;-78
2021/10/13 04:43:51;;;;;;;7.87;4.30;;;8.70;99.90;;;;;;5052231;28;20173;-79
2021/10/13 04:46:16;;;;;;;7.07;4.20;;;8.80;99.90;;;;;;5052319;28;20184;-79
2021/10/13 04:48:42;;;;;;;9.00;4.57;;;8.80;99.90;;;;;;5051806;28;20165;-79
2021/10/13 04:51:08;;;;;;;6.43;4.37;;;8.90;99.90;;;;;;5067095;28;20185;-79
2021/10/13 04:53:33;;;;;;;10.00;4.80;;;8.90;99.90;;;;;;5051875;28;20518;-78
2021/10/13 04:55:59;;;;;;;7.53;4.47;;;8.90;99.90;;;;;;5052028;28;20184;-79
2021/10/13 04:58:25;;;;;;;6.53;5.10;;;9.00;99.90;;;;;;5051766;28;20668;-79
2021/10/13 05:00:51;;;;;;;6.10;4.93;;;9.00;99.90;;;;;;5052079;28;20200;-79
2021/10/13 05:03:20;;;;;;;9.00;4.95;;;9.10;99.90;;;;;;5034322;28;20173;-79
2021/10/13 05:05:46;;;;;;;8.07;5.18;;;9.10;99.90;;;;;;5036671;28;20197;-79
2021/10/13 05:08:12;;;;;;;8.77;5.30;;;9.10;99.90;;;;;;5052357;28;20206;-79
2021/10/13 05:10:38;;;;;;;7.43;4.57;;;9.20;99.90;;;;;;5052245;28;20161;-79
2021/10/13 05:13:05;;;;;;;5.88;5.15;;;9.20;99.90;;;;;;5055057;28;21019;-79
2021/10/13 05:15:31;;;;;;;8.27;5.20;;;9.20;99.90;;;;;;5053566;28;20561;-79
2021/10/13 05:17:57;;;;;;;7.60;4.13;;;9.30;99.90;;;;;;5059816;28;20169;-78
2021/10/13 05:20:23;;;;;;;8.93;5.20;;;9.30;99.90;;;;;;5052093;28;20161;-79
2021/10/13 05:22:48;;;;;;;8.33;4.20;;;9.30;99.90;;;;;;5051920;28;20655;-78
2021/10/13 05:25:14;;;;;;;4.87;3.97;;;9.30;99.90;;;;;;5051695;28;20205;-79
2021/10/13 05:27:40;;;;;;;7.30;4.23;;;9.30;99.90;;;;;;5033943;28;20242;-79
2021/10/13 05:30:06;;;;;;;7.00;4.23;;;9.30;99.90;;;;;;5051415;28;20619;-78
2021/10/13 05:32:32;;;;;;;5.75;4.13;;;9.30;99.90;;;;;;5033302;28;20258;-79
2021/10/13 05:34:58;;;;;;;4.17;3.77;;;9.20;99.90;;;;;;5051239;28;20591;-79
2021/10/13 05:37:23;;;;;;;8.30;5.30;;;9.20;99.90;;;;;;5051327;28;20191;-79
2021/10/13 05:39:49;;;;;;;5.00;4.27;;;9.20;99.90;;;;;;5053617;28;20168;-78
2021/10/13 05:42:15;;;;;;;8.47;4.73;;;9.20;99.90;;;;;;5055230;28;21148;-78
2021/10/13 05:44:41;;;;;;;6.70;4.57;;;9.20;99.90;;;;;;5037576;28;20664;-78
2021/10/13 05:47:07;;;;;;;8.73;5.53;;;9.20;99.90;;;;;;5055379;28;20170;-79
2021/10/13 05:49:32;;;;;;;7.70;4.43;;;9.20;99.90;;;;;;5056808;28;20169;-78
2021/10/13 05:51:58;;;;;;;8.90;4.80;;;9.20;99.90;;;;;;5070953;28;20619;-78
2021/10/13 05:54:24;;;;;;;6.70;4.43;;;9.20;99.90;;;;;;5070941;28;20725;-79
2021/10/13 05:56:50;;;;;;;6.63;4.70;;;9.20;99.90;;;;;;5054992;28;20883;-79
2021/10/13 05:59:16;;;;;;;4.40;3.70;;;9.20;99.90;;;;;;5055083;28;20555;-79
2021/10/13 06:01:42;;;;;;;6.43;4.60;;;9.20;99.90;;;;;;5036913;28;20173;-78
2021/10/13 06:04:08;;;;;;;8.00;6.00;;;9.30;99.90;;;;;;5054193;28;20176;-78
2021/10/13 06:06:33;;;;;;;9.60;7.20;;;9.30;99.90;;;;;;5054968;28;20211;-78
2021/10/13 06:08:59;;;;;;;12.10;6.67;;;9.40;99.90;;;;;;5070389;28;20649;-79
2021/10/13 06:11:25;;;;;;;8.03;6.27;;;9.40;99.90;;;;;;5034912;28;20204;-78
2021/10/13 06:13:52;;;;;;;10.38;6.30;;;9.50;99.90;;;;;;5055045;28;20169;-78
2021/10/13 06:16:19;;;;;;;7.55;5.57;;;9.50;99.90;;;;;;5055008;28;20212;-79
2021/10/13 06:18:47;;;;;;;12.52;5.80;;;9.50;99.90;;;;;;5054782;28;20526;-77
2021/10/13 06:21:13;;;;;;;7.82;5.60;;;9.50;99.90;;;;;;5054333;28;20181;-78
2021/10/13 06:23:38;;;;;;;8.57;6.03;;;9.60;99.90;;;;;;5054319;28;20165;-78
2021/10/13 06:26:04;;;;;;;7.70;5.10;;;9.60;99.90;;;;;;5054347;28;20258;-78
2021/10/13 06:28:31;;;;;;;11.33;5.40;;;9.70;99.90;;;;;;5055729;28;20179;-78
2021/10/13 06:30:57;;;;;;;7.05;4.50;;;9.80;99.90;;;;;;5054001;28;20205;-77
2021/10/13 06:33:23;;;;;;;7.27;5.17;;;9.90;99.90;;;;;;5053962;28;20597;-78
2021/10/13 06:35:48;;;;;;;8.20;5.20;;;9.90;99.90;;;;;;5054369;28;20276;-78
2021/10/13 06:38:15;;;;;;;9.87;6.50;;;10.00;99.90;;;;;;5054082;28;20170;-77
2021/10/13 06:40:40;;;;;;;10.18;6.15;;;10.10;99.90;;;;;;5036603;28;20662;-78
2021/10/13 06:43:06;;;;;;;11.20;6.23;;;10.10;99.90;;;;;;5053980;28;20191;-78
2021/10/13 06:45:36;;;;;;;9.20;4.72;;;10.20;99.90;;;;;;5054054;28;20585;-78
2021/10/13 06:48:06;;;;;;;7.25;5.82;;;10.20;99.90;;;;;;5054032;28;20181;-78
2021/10/13 06:50:32;;;;;;;15.63;7.55;;;10.30;99.90;;;;;;5053545;28;20288;-78
2021/10/13 06:52:58;;;;;;;13.77;6.85;;;10.30;99.90;;;;;;5054149;28;20415;-79
2021/10/13 06:55:24;;;;;;;10.90;6.75;;;10.40;99.90;;;;;;5054171;28;20308;-77
2021/10/13 06:57:50;;;;;;;18.30;9.30;;;10.50;99.90;;;;;;5036704;28;20350;-78
2021/10/13 07:00:16;;;;;;;13.60;8.73;;;10.60;99.90;;;;;;5053787;28;20559;-78
2021/10/13 07:02:42;;;;;;;10.87;7.87;;;10.70;99.90;;;;;;5053337;28;20180;-79
2021/10/13 07:05:08;;;;;;;10.23;6.90;;;10.80;99.90;;;;;;5036407;28;20676;-78
2021/10/13 07:07:41;;;;;;;14.40;7.80;;;10.90;99.90;;;;;;5053990;28;20206;-78
2021/10/13 07:10:07;;;;;;;9.73;7.13;;;11.10;99.90;;;;;;5053911;28;20747;-77
2021/10/13 07:12:35;;;;;;;14.93;7.13;;;11.20;99.90;;;;;;5053588;28;20221;-77
2021/10/13 07:15:02;;;;;;;8.68;5.90;;;11.30;99.90;;;;;;5053731;28;20191;-77
2021/10/13 07:17:28;;;;;;;6.07;5.20;;;11.50;99.90;;;;;;5053859;28;20176;-77
2021/10/13 07:19:55;;;;;;;8.35;5.50;;;11.60;99.90;;;;;;5053467;28;20165;-77
2021/10/13 07:22:21;;;;;;;11.68;7.82;;;11.70;99.90;;;;;;5053592;28;20172;-78
2021/10/13 07:24:47;;;;;;;11.43;7.10;;;11.80;99.90;;;;;;5035791;28;20238;-78
2021/10/13 07:27:12;;;;;;;14.23;6.27;;;11.80;99.90;;;;;;5055188;28;20607;-78
2021/10/13 07:29:44;;;;;;;7.93;5.90;;;11.90;99.90;;;;;;5053588;28;20180;-78
2021/10/13 07:32:10;;;;;;;10.57;8.05;;;11.90;99.90;;;;;;5052968;28;20619;-77
2021/10/13 07:34:35;;;;;;;10.13;6.57;;;11.90;99.90;;;;;;5053278;28;20165;-78
2021/10/13 07:37:03;;;;;;;7.80;6.10;;;12.00;99.90;;;;;;5052993;28;20629;-77
2021/10/13 07:39:29;;;;;;;8.75;6.22;;;12.10;99.90;;;;;;5053230;28;20208;-78
2021/10/13 07:41:55;;;;;;;14.70;6.22;;;12.20;99.90;;;;;;5053867;28;20605;-77
2021/10/13 07:44:21;;;;;;;10.18;5.70;;;12.30;99.90;;;;;;5053286;28;20295;-77
2021/10/13 07:46:47;;;;;;;8.97;6.10;;;12.40;99.90;;;;;;5052844;28;20177;-77
2021/10/13 07:49:13;;;;;;;13.05;9.60;;;12.60;99.90;;;;;;5052866;28;20560;-77
2021/10/13 07:51:39;;;;;;;9.60;6.43;;;12.80;99.90;;;;;;5052559;28;20723;-77
2021/10/13 07:54:05;;;;;;;8.93;6.43;;;13.00;99.90;;;;;;5018676;28;20567;-77
2021/10/13 07:56:31;;;;;;;9.47;5.40;;;13.20;99.90;;;;;;5052858;28;20644;-77
2021/10/13 07:58:57;;;;;;;9.03;6.60;;;13.40;99.90;;;;;;5066303;28;20580;-77
2021/10/13 08:01:23;;;;;;;8.13;5.20;;;13.60;99.90;;;;;;5060094;28;20579;-78
2021/10/13 08:03:49;;;;;;;6.80;6.10;;;13.90;99.90;;;;;;5061538;28;20184;-78
2021/10/13 08:06:14;;;;;;;8.40;5.00;;;14.10;99.90;;;;;;5068531;28;20615;-77
2021/10/13 08:08:40;;;;;;;5.67;5.03;;;14.30;99.90;;;;;;5041137;28;20196;-77
2021/10/13 08:11:07;;;;;;;8.53;5.60;;;14.30;99.90;;;;;;5059462;28;20200;-77
2021/10/13 08:13:33;;;;;;;7.03;5.63;;;14.40;99.90;;;;;;5052150;28;20625;-76
2021/10/13 08:16:02;;;;;;;6.20;4.90;;;14.50;99.90;;;;;;5034659;28;20607;-77
2021/10/13 08:18:28;;;;;;;4.87;4.47;;;14.50;99.90;;;;;;5035047;28;20578;-78
2021/10/13 08:20:54;;;;;;;6.00;4.40;;;14.60;99.90;;;;;;5034445;28;20564;-77
2021/10/13 08:23:21;;;;;;;7.53;5.80;;;15.10;99.90;;;;;;5052325;28;21182;-76
2021/10/13 08:25:48;;;;;;;5.83;5.10;;;15.70;99.90;;;;;;5052111;28;20599;-76
2021/10/13 08:28:14;;;;;;;5.23;4.70;;;16.30;99.90;;;;;;5034598;28;20563;-76
2021/10/13 08:30:40;;;;;;;8.83;4.70;;;16.80;99.90;;;;;;5052064;28;20564;-75
2021/10/13 08:33:06;;;;;;;6.27;4.57;;;17.40;99.90;;;;;;5034170;28;20709;-75
2021/10/13 08:35:31;;;;;;;5.13;3.77;;;17.90;99.90;;;;;;5017379;28;21186;-76
2021/10/13 08:37:58;;;;;;;9.20;4.23;;;18.60;99.90;;;;;;5052037;28;20169;-76
2021/10/13 08:40:24;;;;;;;6.33;2.80;;;19.20;99.90;;;;;;5051887;28;20956;-76
2021/10/13 08:42:57;;;;;;;6.20;3.20;;;19.50;99.90;;;;;;5052030;28;20238;-76
2021/10/13 08:45:24;;;;;;;4.50;4.10;;;19.90;99.90;;;;;;5052299;28;20552;-79
2021/10/13 08:47:50;;;;;;;4.90;3.47;;;20.30;99.90;;;;;;5034237;28;20674;-80
2021/10/13 08:50:16;;;;;;;6.00;3.50;;;20.90;99.90;;;;;;5052177;28;20667;-81
2021/10/13 08:52:42;;;;;;;4.73;3.30;;;21.40;99.90;;;;;;5051453;28;21021;-80
2021/10/13 08:55:08;;;;;;;5.63;3.50;;;21.70;99.90;;;;;;5051888;28;20608;-80
2021/10/13 08:57:35;;;;;;;4.80;2.50;;;21.90;99.90;;;;;;5052306;28;20286;-80
2021/10/13 09:00:01;;;;;;;3.93;2.70;;;22.00;99.90;;;;;;5051739;28;21162;-80
2021/10/13 09:02:45;;;;;;;3.30;3.00;;;22.20;99.90;;;;;;5051218;28;20680;-80
2021/10/13 09:05:14;;;;;;;4.10;2.40;;;22.50;99.90;;;;;;5052004;28;20197;-80
2021/10/13 09:07:49;;;;;;;3.67;2.53;;;22.70;99.90;;;;;;5034619;28;20576;-79
2021/10/13 09:10:32;;;;;;;8.03;3.20;;;22.80;99.90;;;;;;5037622;28;20571;-79
2021/10/13 09:13:00;;;;;;;5.33;2.73;;;22.70;99.90;;;;;;5051070;28;20619;-78
2021/10/13 09:15:28;;;;;;;4.10;2.67;;;22.40;99.90;;;;;;5033537;28;20608;-80
2021/10/13 09:17:55;;;;;;;4.30;1.93;;;22.10;99.90;;;;;;5051379;28;20606;-80
2021/10/13 09:20:28;;;;;;;4.63;2.53;;;21.70;99.90;;;;;;5051587;28;20914;-80
2021/10/13 09:22:58;;;;;;;4.37;2.97;;;21.40;99.90;;;;;;5050177;28;20911;-80
2021/10/13 09:25:24;;;;;;;4.03;2.37;;;21.00;99.90;;;;;;5051418;28;20607;-79
2021/10/13 09:27:50;;;;;;;7.47;3.50;;;20.60;99.90;;;;;;5051333;28;20582;-80
2021/10/13 09:30:29;;;;;;;4.80;3.40;;;20.30;99.90;;;;;;5051709;28;20227;-80
2021/10/13 09:33:17;;;;;;;6.07;3.17;;;20.40;99.90;;;;;;5050989;28;20631;-80
2021/10/13 09:35:45;;;;;;;4.60;3.27;;;20.80;99.90;;;;;;5051349;28;20591;-80
2021/10/13 09:38:13;;;;;;;6.77;3.93;;;21.20;99.90;;;;;;5051127;28;20590;-79
2021/10/13 09:40:39;;;;;;;6.17;3.00;;;21.60;99.90;;;;;;5051238;28;20582;-80
2021/10/13 09:43:05;;;;;;;4.83;2.33;;;21.70;99.90;;;;;;5051030;28;20571;-80
2021/10/13 09:45:37;;;;;;;4.07;2.03;;;21.90;99.90;;;;;;5050688;28;20592;-79
2021/10/13 09:48:06;;;;;;;3.73;2.13;;;22.30;99.90;;;;;;5033335;28;20188;-79
2021/10/13 09:50:44;;;;;;;4.30;2.27;;;22.70;99.90;;;;;;5050830;28;20582;-79
2021/10/13 09:53:22;;;;;;;2.57;1.50;;;22.90;99.90;;;;;;5032993;28;20587;-80
2021/10/13 09:55:48;;;;;;;3.23;1.80;;;23.20;99.90;;;;;;5050698;28;20640;-80
2021/10/13 09:58:40;;;;;;;2.90;1.40;;;23.40;99.90;;;;;;5033235;28;20918;-80
2021/10/13 10:01:12;;;;;;;4.87;2.00;;;23.40;99.90;;;;;;5029805;28;20595;-80
2021/10/13 10:03:40;;;;;;;3.10;1.60;;;23.10;99.90;;;;;;5050799;28;20908;-80
2021/10/13 10:06:07;;;;;;;2.83;1.93;;;23.00;99.90;;;;;;5050808;28;20591;-80
2021/10/13 10:08:51;;;;;;;3.13;2.13;;;22.90;99.90;;;;;;5051231;28;20580;-80
2021/10/13 10:11:34;;;;;;;5.03;1.90;;;22.80;99.90;;;;;;5053170;28;20617;-79
2021/10/13 10:14:03;;;;;;;1.97;1.40;;;22.70;99.90;;;;;;5033245;28;20630;-79
2021/10/13 10:16:34;;;;;;;5.67;2.37;;;22.70;99.90;;;;;;5050799;28;20602;-79
2021/10/13 10:19:21;;;;;;;5.10;2.17;;;22.80;99.90;;;;;;5033155;28;20675;-80
2021/10/13 10:21:51;;;;;;;4.13;1.97;;;22.80;99.90;;;;;;5015836;28;20575;-79
2021/10/13 10:24:25;;;;;;;2.63;1.70;;;22.70;99.90;;;;;;5049730;28;20571;-79
2021/10/13 10:26:51;;;;;;;3.50;1.57;;;22.60;99.90;;;;;;5054042;28;20701;-79
2021/10/13 10:29:17;;;;;;;2.60;1.57;;;22.70;99.90;;;;;;5054463;28;20583;-80
2021/10/13 10:31:58;;;;;;;4.80;2.00;;;22.80;99.90;;;;;;5053840;28;20607;-80
2021/10/13 10:34:25;;;;;;;3.00;1.47;;;22.80;99.90;;;;;;5054239;28;20583;-80
2021/10/13 10:37:07;;;;;;;2.57;1.20;;;22.80;99.90;;;;;;5036390;28;20592;-80
2021/10/13 10:39:54;;;;;;;5.60;3.30;;;22.60;99.90;;;;;;5036779;28;21099;-80
2021/10/13 10:42:57;;;;;;;3.40;1.43;;;22.50;99.90;;;;;;5053200;28;20579;-80
2021/10/13 10:45:29;;;;;;;5.73;1.67;;;22.60;99.90;;;;;;5054113;28;20591;-80
2021/10/13 10:48:01;;;;;;;4.70;1.80;;;22.60;99.90;;;;;;5054176;28;20555;-80
2021/10/13 10:50:39;;;;;;;6.37;1.73;;;22.50;99.90;;;;;;5054198;28;20598;-79
2021/10/13 10:53:17;;;;;;;5.33;2.40;;;22.30;99.90;;;;;;5053561;28;20657;-80
2021/10/13 10:55:45;;;;;;;4.33;3.03;;;22.10;99.90;;;;;;5054121;28;20705;-80
2021/10/13 10:58:25;;;;;;;3.03;2.10;;;21.80;99.90;;;;;;5036217;28;21122;-80
2021/10/13 11:00:58;;;;;;;4.40;2.33;;;21.40;99.90;;;;;;5053517;28;20579;-80
2021/10/13 11:03:30;;;;;;;5.03;2.20;;;21.20;99.90;;;;;;5054155;28;20564;-80
2021/10/13 11:06:07;;;;;;;6.63;1.87;;;21.10;99.90;;;;;;5035852;28;20694;-80
2021/10/13 11:08:33;;;;;;;3.33;1.90;;;21.10;99.90;;;;;;5053881;28;20628;-80
2021/10/13 11:11:12;;;;;;;4.90;2.30;;;21.20;99.90;;;;;;5035550;28;21123;-80
2021/10/13 11:13:38;;;;;;;5.87;3.10;;;21.20;99.90;;;;;;5053933;28;20168;-80
2021/10/13 11:16:10;;;;;;;5.47;2.10;;;21.10;99.90;;;;;;5062020;28;20579;-80
2021/10/13 11:18:38;;;;;;;3.70;1.90;;;20.90;99.90;;;;;;5043712;28;20177;-80
2021/10/13 11:21:10;;;;;;;5.40;2.30;;;20.70;99.90;;;;;;5053480;28;20575;-80
2021/10/13 11:23:37;;;;;;;6.07;2.30;;;20.60;99.90;;;;;;5054449;28;20165;-79
2021/10/13 11:26:04;;;;;;;4.83;2.93;;;20.40;99.90;;;;;;5036333;28;20718;-79
2021/10/13 11:28:40;;;;;;;3.90;1.90;;;20.30;99.90;;;;;;5053407;28;20574;-80
2021/10/13 11:31:09;;;;;;;5.03;2.33;;;20.20;99.90;;;;;;5052979;28;20560;-80
2021/10/13 11:33:35;;;;;;;5.17;1.90;;;20.20;99.90;;;;;;5053441;28;20601;-79
2021/10/13 11:36:07;;;;;;;2.63;1.13;;;20.30;99.90;;;;;;5053115;28;20598;-80
2021/10/13 11:38:36;;;;;;;3.57;1.80;;;20.40;99.90;;;;;;5053019;28;21323;-80
2021/10/13 11:41:15;;;;;;;3.93;1.70;;;20.40;99.90;;;;;;5052817;28;20548;-80
2021/10/13 11:43:42;;;;;;;3.30;1.70;;;20.40;99.90;;;;;;5035276;28;20592;-80
2021/10/13 11:46:14;;;;;;;6.00;1.93;;;20.40;99.90;;;;;;5018574;28;20603;-79
2021/10/13 11:48:40;;;;;;;5.10;1.47;;;20.40;99.90;;;;;;5035270;28;20670;-78
2021/10/13 11:51:13;;;;;;;2.77;1.50;;;20.30;99.90;;;;;;5052681;28;20980;-78
2021/10/13 11:53:39;;;;;;;4.33;1.57;;;20.10;99.90;;;;;;5053243;28;20166;-77
2021/10/13 11:56:12;;;;;;;2.47;1.10;;;19.90;99.90;;;;;;5052819;28;20679;-78
2021/10/13 11:58:38;;;;;;;4.30;0.90;;;19.60;99.90;;;;;;5052933;28;20560;-78
2021/10/13 12:01:04;;;;;;;3.87;1.20;;;19.20;99.90;;;;;;5020979;28;20638;-77
2021/10/13 12:03:35;;;;;;;2.73;1.00;;;18.80;99.90;;;;;;5054700;28;20997;-77
2021/10/13 12:06:02;;;;;;;3.87;1.90;;;18.50;99.90;;;;;;5054625;28;20698;-78
2021/10/13 12:08:31;;;;;;;2.60;1.43;;;18.10;99.90;;;;;;5058730;28;20561;-77
2021/10/13 12:11:14;;;;;;;7.57;2.50;;;17.80;99.90;;;;;;5063026;28;20598;-77
2021/10/13 12:13:45;;;;;;;5.53;2.63;;;17.60;99.90;;;;;;5057885;28;20555;-77
2021/10/13 12:16:13;;;;;;;4.23;2.30;;;17.40;99.90;;;;;;5065564;28;20606;-77
2021/10/13 12:18:45;;;;;;;3.20;1.20;;;17.30;99.90;;;;;;5046290;28;20556;-77
2021/10/13 12:21:22;;;;;;;2.07;1.20;;;17.30;99.90;;;;;;5055388;28;20575;-79
2021/10/13 12:23:55;;;;;;;4.40;1.10;;;17.20;99.90;;;;;;5054503;28;20625;-78
2021/10/13 12:26:24;;;;;;;2.27;1.00;;;17.20;99.90;;;;;;5035714;28;20611;-78
2021/10/13 12:28:57;;;;;;;3.10;0.80;;;17.30;99.90;;;;;;5054907;28;20929;-78
2021/10/13 12:31:29;;;;;;;2.60;0.67;;;17.30;99.90;;;;;;5053225;28;20635;-78
2021/10/13 12:34:00;;;;;;;2.40;0.90;;;17.30;99.90;;;;;;5051793;28;20559;-78
2021/10/13 12:36:38;;;;;;;3.87;2.53;;;17.30;99.90;;;;;;5055357;28;20645;-78
2021/10/13 12:39:14;;;;;;;7.50;2.30;;;17.40;99.90;;;;;;5037179;28;21158;-78
2021/10/13 12:41:46;;;;;;;5.40;2.37;;;17.40;99.90;;;;;;5068396;28;20594;-78
2021/10/13 12:44:21;;;;;;;2.53;1.53;;;17.40;99.90;;;;;;5044551;28;21111;-79
2021/10/13 12:46:57;;;;;;;6.80;2.60;;;17.40;99.90;;;;;;5058519;28;20653;-79
2021/10/13 12:49:25;;;;;;;5.87;1.93;;;17.40;99.90;;;;;;5050420;28;20559;-78
2021/10/13 12:52:00;;;;;;;3.47;1.60;;;17.50;99.90;;;;;;5061845;28;20626;-78
2021/10/13 12:54:35;;;;;;;7.70;2.07;;;17.50;99.90;;;;;;5045797;28;20574;-78
2021/10/13 12:57:02;;;;;;;3.40;1.77;;;17.50;99.90;;;;;;5049506;28;20631;-79
2021/10/13 12:59:28;;;;;;;3.53;1.00;;;17.50;99.90;;;;;;5044269;28;20567;-78
2021/10/13 13:01:55;;;;;;;3.47;1.83;;;17.50;99.90;;;;;;5061233;28;21177;-78